• Join FlightAware (Why Join?)
  • Login
  • US Flag 
11:07PM EDT


 

Airport Tracker/Info


-or-


 

Live Flight TrackerFlight Track Log ✈ SWA407 ✈ 29-Apr-2013 ✈ KMCO - KATL

Flight Track Log - Related Links

Times and Time Zones

All times are in EDT time to prevent confusion due to time zone crossing. See the SWA407 flight status page for this flight to view local times or setup timezone preferences in your user account.

Time Position Orientation Groundspeed Altitude Reporting Facility
EDT Latitude Longitude Course Direction KTS MPH feet Rate Location/Type
03:03PM 28.4333 -81.3167 196° South 150 173 700  Level Orlando TRACON
03:03PM 28.3833 -81.3333 196° South 201 231 2,900 3,120 Climbing Orlando TRACON
03:04PM 28.3333 -81.3667 210° Southwest 199 229 6,400 3,060 Climbing Orlando TRACON
03:06PM 28.4292 -81.4056 340° North 288 331 11,200 3,120 Climbing Jacksonville Center
03:07PM 28.5233 -81.4206 352° North 312 359 14,800 3,540 Climbing Jacksonville Center
03:08PM 28.6239 -81.4500 346° North 341 392 18,300 3,300 Climbing Jacksonville Center
03:09PM 28.7306 -81.4767 348° North 363 418 21,500 3,120 Climbing Jacksonville Center
03:10PM 28.8394 -81.5083 346° North 386 444 24,600 2,220 Climbing Jacksonville Center
03:11PM 28.9506 -81.5425 345° North 399 459 26,000 660 Climbing Jacksonville Center
03:12PM 29.0636 -81.5717 347° North 405 466 26,000  Level Jacksonville Center
03:13PM 29.1744 -81.6011 347° North 410 472 26,000  Level Jacksonville Center
03:14PM 29.2875 -81.6331 346° North 410 472 26,000  Level Jacksonville Center
03:15PM 29.3983 -81.6650 346° North 410 472 26,000 300 Level Jacksonville Center
03:16PM 29.5094 -81.6947 347° North 410 472 26,600 1,500 Climbing Jacksonville Center
03:17PM 29.6225 -81.7292 345° North 410 472 29,100 2,460 Climbing Jacksonville Center
03:18PM 29.7375 -81.7589 347° North 415 478 31,600 2,400 Climbing Jacksonville Center
03:19PM 29.8525 -81.7908 346° North 415 478 33,900 1,680 Climbing Jacksonville Center
03:20PM 29.9678 -81.8233 346° North 415 478 35,000 540 Climbing Jacksonville Center
03:21PM 30.0847 -81.8508 348° North 415 478 35,000  Level Jacksonville Center
03:22PM 30.2019 -81.8831 347° North 415 478 35,000  Level Jacksonville Center
03:23PM 30.3231 -81.8747 North 426 490 35,000  Level Jacksonville Center
03:24PM 30.4481 -81.8564 North 426 490 35,000  Level Jacksonville Center
03:25PM 30.5608 -81.8431 North 450 518 35,000  Level Jacksonville Center
03:26PM 30.6739 -81.8733 347° North 424 488 35,000  Level Jacksonville Center
03:27PM 30.7786 -81.9278 336° Northwest 410 472 35,000  Level Jacksonville Center
03:28PM 30.8833 -81.9800 337° Northwest 410 472 35,000  Level Jacksonville Center
03:29PM 30.9903 -82.0322 337° Northwest 410 472 35,000  Level Jacksonville Center
03:30PM 31.0950 -82.0872 336° Northwest 410 472 35,000  Level Jacksonville Center
03:31PM 31.2039 -82.1419 337° Northwest 410 472 35,000  Level Jacksonville Center
03:32PM 31.3128 -82.1947 338° Northwest 420 483 35,000  Level Jacksonville Center
03:34PM 31.5361 -82.3042 337° Northwest 420 483 35,000  Level Atlanta Center
03:35PM 31.6414 -82.3606 335° Northwest 420 483 35,000  Level Atlanta Center
03:36PM 31.7483 -82.4147 337° Northwest 420 483 35,000  Level Atlanta Center
03:37PM 31.8556 -82.4667 338° Northwest 420 483 35,000  Level Atlanta Center
03:38PM 31.9647 -82.5236 336° Northwest 420 483 35,000  Level Atlanta Center
03:39PM 32.0678 -82.5881 332° Northwest 420 483 35,000 -240 Level Atlanta Center
03:40PM 32.1522 -82.6772 318° Northwest 420 483 34,600 -720 Descending Atlanta Center
03:41PM 32.2411 -82.7692 319° Northwest 414 476 33,600 -960 Descending Atlanta Center
03:42PM 32.3275 -82.8614 318° Northwest 419 482 32,700 -1,020 Descending Atlanta Center
03:43PM 32.4139 -82.9514 319° Northwest 419 482 31,600 -1,080 Descending Atlanta Center
03:44PM 32.4961 -83.0414 317° Northwest 414 476 30,600 -1,200 Descending Atlanta Center
03:45PM 32.5761 -83.1267 318° Northwest 407 468 29,300 -1,800 Descending Atlanta Center
03:46PM 32.6600 -83.2147 319° Northwest 401 461 27,100 -2,160 Descending Atlanta Center
03:47PM 32.7400 -83.3006 318° Northwest 394 453 25,000 -2,160 Descending Atlanta Center
03:48PM 32.8178 -83.3814 319° Northwest 387 445 22,800 -2,100 Descending Atlanta Center
03:49PM 32.8933 -83.4625 318° Northwest 376 433 20,800 -2,040 Descending Atlanta Center
03:50PM 32.9667 -83.5411 318° Northwest 364 419 18,800 -2,040 Descending Atlanta Center
03:51PM 33.0400 -83.6200 318° Northwest 358 412 16,800 -2,100 Descending Atlanta Center
03:52PM 33.1175 -83.7014 319° Northwest 351 404 14,600 -2,340 Descending Atlanta Center
03:53PM 33.1500 -83.7333 321° Northwest 331 381 13,600 -1,920 Descending Atlanta TRACON
03:54PM 33.2167 -83.8000 320° Northwest 318 366 12,000 -1,380 Descending Atlanta TRACON
03:55PM 33.2667 -83.8833 306° West 293 337 10,900 -1,200 Descending Atlanta TRACON
03:55PM 33.3036 -83.9069 332° Northwest 295 339 10,100 -1,260 Descending Atlanta Center
03:56PM 33.3808 -83.9269 348° North 279 321 8,900 -1,020 Descending Atlanta Center
03:57PM 33.4581 -83.9442 349° North 279 321 8,100 -420 Descending Atlanta Center
03:58PM 33.5311 -83.9617 349° North 274 315 8,100 -540 Level Atlanta Center
03:59PM 33.6064 -83.9889 343° North 274 315 7,100 -600 Descending Atlanta Center
04:00PM 33.6314 -84.0539 295° West 250 288 7,000 -840 Descending Atlanta Center
04:01PM 33.6314 -84.1411 270° West 250 288 5,500 -1,620 Descending Atlanta Center
04:02PM 33.6333 -84.1833 273° West 222 255 4,800 -1,320 Descending Atlanta TRACON
04:03PM 33.6333 -84.2500 270° West 195 224 3,700 -1,080 Descending Atlanta TRACON
04:04PM 33.6333 -84.3000 270° West 189 217 2,700 -900 Descending Atlanta TRACON
04:05PM 33.6333 -84.3500 270° West 145 167 1,900 -780 Descending Atlanta TRACON
04:06PM 33.6333 -84.4000 270° West 143 165 1,200 -720 Descending Atlanta TRACON
04:08PM 33.6333 -84.4167 274° West  Level FlightAware Approximate